Time;durP1;ratioP1;P1;durP2;ratioP2;P2;SDS_P1;SDS_P2;PMS_P1;PMS_P2;Temp;Humidity;BMP_temperature;BMP_pressure;BME280_temperature;BME280_humidity;BME280_pressure;Samples;Min_cycle;Max_cycle;Signal;HPM_P1;HPM_P2
2021/03/07 00:01:11;;;;;;;5.80;1.60;;;;;;;2.37;60.67;101807.41;5054259;28;20174;-71
2021/03/07 00:03:36;;;;;;;3.40;2.03;;;;;;;2.27;61.05;101807.44;5054713;28;20198;-71
2021/03/07 00:06:02;;;;;;;6.00;1.80;;;;;;;2.29;61.24;101798.66;5054150;28;20265;-70
2021/03/07 00:08:35;;;;;;;5.37;2.00;;;;;;;2.25;61.42;101825.03;5053798;28;20182;-71
2021/03/07 00:11:00;;;;;;;5.40;1.80;;;;;;;2.14;61.23;101786.38;5053536;28;20165;-71
2021/03/07 00:13:25;;;;;;;4.70;1.90;;;;;;;2.21;61.05;101789.88;5053041;28;20228;-70
2021/03/07 00:15:50;;;;;;;8.37;2.20;;;;;;;2.12;61.14;101780.25;5054311;28;20177;-70
2021/03/07 00:18:16;;;;;;;4.60;2.13;;;;;;;2.16;61.40;101767.94;5056966;28;20528;-71
2021/03/07 00:20:41;;;;;;;6.43;2.03;;;;;;;2.14;61.84;101767.09;5056588;28;20242;-70
2021/03/07 00:23:07;;;;;;;2.97;1.60;;;;;;;2.17;61.03;101765.31;5055483;28;20201;-70
2021/03/07 00:25:32;;;;;;;7.33;2.90;;;;;;;2.14;61.13;101781.13;5039416;28;20528;-71
2021/03/07 00:27:57;;;;;;;7.10;2.23;;;;;;;2.16;61.31;101774.09;5055769;28;20314;-70
2021/03/07 00:30:22;;;;;;;3.50;1.90;;;;;;;2.23;61.11;101760.91;5057694;28;20177;-71
2021/03/07 00:32:48;;;;;;;3.00;1.70;;;;;;;2.22;61.32;101756.50;5055448;28;20270;-70
2021/03/07 00:35:13;;;;;;;3.33;2.00;;;;;;;2.17;61.29;101757.41;5055628;28;20243;-71
2021/03/07 00:37:39;;;;;;;8.43;2.07;;;;;;;2.18;61.75;101753.88;5055436;28;20197;-70
2021/03/07 00:40:06;;;;;;;4.63;2.00;;;;;;;2.10;62.04;101767.97;5039244;28;20251;-70
2021/03/07 00:42:31;;;;;;;5.13;2.20;;;;;;;2.20;61.62;101751.25;5056970;28;20202;-72
2021/03/07 00:44:57;;;;;;;2.80;1.83;;;;;;;2.20;61.83;101749.50;5056569;28;20178;-71
2021/03/07 00:47:23;;;;;;;4.40;1.97;;;;;;;2.18;62.00;101742.47;5055605;28;20257;-71
2021/03/07 00:49:48;;;;;;;7.17;2.23;;;;;;;2.11;62.37;101746.03;5055281;28;20185;-71
2021/03/07 00:52:13;;;;;;;5.37;1.90;;;;;;;2.13;62.06;101737.22;5055565;28;20287;-71
2021/03/07 00:54:39;;;;;;;11.17;2.40;;;;;;;2.10;62.70;101739.00;5038679;28;20693;-71
2021/03/07 00:57:04;;;;;;;6.00;2.03;;;;;;;2.12;62.56;101743.38;5057537;28;20205;-71
2021/03/07 00:59:29;;;;;;;5.57;2.37;;;;;;;2.21;62.37;101745.09;5057881;28;20200;-70
2021/03/07 01:01:55;;;;;;;5.07;2.00;;;;;;;2.17;62.48;101741.59;5057420;28;20630;-71
2021/03/07 01:04:20;;;;;;;2.60;1.70;;;;;;;2.11;62.99;101748.66;5058150;28;20296;-70
2021/03/07 01:06:45;;;;;;;4.93;1.87;;;;;;;2.01;63.00;101734.66;5055832;28;20289;-70
2021/03/07 01:09:11;;;;;;;3.63;1.80;;;;;;;2.06;62.56;101721.47;5056970;28;20179;-70
2021/03/07 01:11:36;;;;;;;9.97;2.70;;;;;;;2.13;62.74;101729.34;5055383;28;20182;-70
2021/03/07 01:14:03;;;;;;;4.60;2.23;;;;;;;2.14;62.63;101714.41;5057091;28;20181;-69
2021/03/07 01:16:29;;;;;;;4.07;2.00;;;;;;;2.09;62.78;101714.44;5055196;28;20174;-70
2021/03/07 01:18:54;;;;;;;3.80;1.53;;;;;;;2.10;63.25;101708.28;5056389;28;20266;-71
2021/03/07 01:21:19;;;;;;;3.17;1.40;;;;;;;2.11;63.13;101728.47;5056951;28;20181;-71
2021/03/07 01:23:45;;;;;;;3.00;1.70;;;;;;;2.10;62.81;101716.19;5055275;28;20202;-71
2021/03/07 01:26:10;;;;;;;6.37;1.70;;;;;;;2.03;63.25;101696.03;5055099;28;20183;-70
2021/03/07 01:28:35;;;;;;;2.47;1.50;;;;;;;2.04;63.46;101691.63;5056904;28;20208;-70
2021/03/07 01:31:01;;;;;;;3.60;2.00;;;;;;;1.94;63.82;101703.97;5056309;28;20232;-71
2021/03/07 01:33:26;;;;;;;6.57;2.23;;;;;;;1.98;63.77;101668.84;5038481;28;20232;-70
2021/03/07 01:35:52;;;;;;;6.93;2.37;;;;;;;1.97;63.73;101688.16;5055228;28;20186;-70
2021/03/07 01:38:17;;;;;;;3.30;1.93;;;;;;;2.01;63.05;101700.44;5054823;28;20198;-70
2021/03/07 01:40:48;;;;;;;6.40;1.97;;;;;;;2.04;63.61;101681.97;5037917;28;20394;-70
2021/03/07 01:43:15;;;;;;;3.90;1.80;;;;;;;1.97;63.59;101679.38;5056454;28;20312;-70
2021/03/07 01:45:40;;;;;;;2.63;1.73;;;;;;;2.02;63.29;101654.78;5056228;28;20176;-70
2021/03/07 01:48:08;;;;;;;6.70;2.73;;;;;;;1.99;63.93;101664.44;5055343;28;20216;-70
2021/03/07 01:50:35;;;;;;;6.60;2.00;;;;;;;2.03;63.07;101669.69;5055520;28;20176;-72
2021/03/07 01:53:01;;;;;;;4.83;1.97;;;;;;;1.93;63.78;101665.34;5055681;28;20679;-70
2021/03/07 01:55:28;;;;;;;8.50;2.00;;;;;;;1.98;63.48;101642.50;5054753;28;20261;-70
2021/03/07 01:58:04;;;;;;;6.03;2.00;;;;;;;2.01;63.11;101653.03;5054580;28;20209;-71
2021/03/07 02:00:30;;;;;;;4.67;2.23;;;;;;;2.01;63.51;101655.66;5054572;28;20692;-71
2021/03/07 02:02:55;;;;;;;6.03;2.23;;;;;;;2.00;63.59;101653.91;5055673;28;20197;-71
2021/03/07 02:05:21;;;;;;;6.83;2.17;;;;;;;2.00;63.52;101655.66;5037079;28;20218;-71
2021/03/07 02:07:50;;;;;;;6.47;1.93;;;;;;;2.02;63.53;101653.91;5054709;28;20644;-70
2021/03/07 02:10:20;;;;;;;8.90;2.10;;;;;;;1.90;63.99;101652.22;5055369;28;20179;-70
2021/03/07 02:12:48;;;;;;;4.60;2.07;;;;;;;1.96;63.84;101649.53;5055374;28;20196;-70
2021/03/07 02:15:14;;;;;;;6.07;2.33;;;;;;;1.97;64.11;101639.88;5054160;28;20222;-70
2021/03/07 02:17:40;;;;;;;4.10;2.03;;;;;;;1.95;63.93;101649.56;5054379;28;20706;-70
2021/03/07 02:20:07;;;;;;;4.90;1.97;;;;;;;2.00;63.66;101629.34;5054230;28;20177;-70
2021/03/07 02:22:35;;;;;;;4.43;1.97;;;;;;;1.98;63.93;101642.50;5037690;28;20245;-70
2021/03/07 02:25:03;;;;;;;5.37;2.07;;;;;;;2.00;63.54;101638.13;5055389;28;20265;-70
2021/03/07 02:27:28;;;;;;;6.17;2.17;;;;;;;1.93;63.92;101625.00;5055045;28;20195;-70
2021/03/07 02:29:54;;;;;;;6.23;2.37;;;;;;;1.93;63.77;101622.34;5055055;28;20181;-70
2021/03/07 02:32:22;;;;;;;7.83;2.17;;;;;;;1.94;63.64;101618.84;5053819;28;20212;-71
2021/03/07 02:35:02;;;;;;;4.30;2.00;;;;;;;2.01;63.00;101626.69;5053572;28;20192;-70
2021/03/07 02:37:30;;;;;;;7.70;2.10;;;;;;;1.97;63.29;101622.34;5053977;28;20225;-71
2021/03/07 02:39:55;;;;;;;7.00;2.43;;;;;;;2.02;62.82;101638.09;5053605;28;20232;-71
2021/03/07 02:42:23;;;;;;;8.97;2.37;;;;;;;2.01;63.11;101617.94;5054475;28;20202;-71
2021/03/07 02:44:57;;;;;;;6.37;2.03;;;;;;;2.09;60.93;101603.81;5055041;28;20228;-70
2021/03/07 02:47:23;;;;;;;6.00;1.83;;;;;;;2.09;61.37;101617.00;5055150;28;20176;-70
2021/03/07 02:49:49;;;;;;;6.40;2.03;;;;;;;2.02;61.93;101602.13;5054119;28;20203;-71
2021/03/07 02:52:15;;;;;;;4.27;2.00;;;;;;;2.03;61.44;101593.34;5053415;28;20212;-71
2021/03/07 02:54:41;;;;;;;6.57;2.70;;;;;;;2.01;61.80;101604.75;5054717;28;20184;-71
2021/03/07 02:57:08;;;;;;;7.80;3.33;;;;;;;2.02;61.91;101612.66;5053397;28;20205;-70
2021/03/07 02:59:35;;;;;;;4.23;1.97;;;;;;;2.02;62.09;101591.59;5053426;28;20178;-70
2021/03/07 03:02:02;;;;;;;4.93;2.20;;;;;;;2.06;62.48;101593.31;5053097;28;20194;-70
2021/03/07 03:04:30;;;;;;;5.80;2.30;;;;;;;2.07;62.78;101594.19;5052914;28;20228;-70
2021/03/07 03:06:56;;;;;;;9.13;2.37;;;;;;;2.03;62.62;101593.34;5052624;28;20177;-70
2021/03/07 03:09:21;;;;;;;5.63;1.90;;;;;;;1.96;63.03;101580.22;5054375;28;20184;-70
2021/03/07 03:11:48;;;;;;;6.60;2.43;;;;;;;2.06;61.60;101581.91;5054842;28;20169;-70
2021/03/07 03:14:14;;;;;;;8.90;2.00;;;;;;;1.99;61.62;101583.69;5037133;28;20276;-70
2021/03/07 03:16:44;;;;;;;7.23;2.27;;;;;;;1.98;61.25;101579.31;5053486;28;20633;-70
2021/03/07 03:19:10;;;;;;;10.20;2.30;;;;;;;2.00;60.87;101566.16;5052881;28;20185;-70
2021/03/07 03:21:36;;;;;;;7.67;1.97;;;;;;;2.01;60.02;101570.53;5036034;28;20173;-70
2021/03/07 03:24:01;;;;;;;5.97;2.23;;;;;;;1.96;59.90;101562.66;5053036;28;20180;-70
2021/03/07 03:26:28;;;;;;;4.10;2.27;;;;;;;1.90;59.72;101570.59;5052648;28;20271;-70
2021/03/07 03:28:54;;;;;;;4.67;2.30;;;;;;;1.94;60.01;101546.00;5036520;28;20174;-71
2021/03/07 03:31:20;;;;;;;5.33;2.03;;;;;;;1.98;59.46;101524.03;5053373;28;20174;-72
2021/03/07 03:33:45;;;;;;;9.53;2.93;;;;;;;2.01;59.33;101558.25;5054068;28;20196;-69
2021/03/07 03:36:12;;;;;;;5.23;2.27;;;;;;;2.00;59.47;101566.16;5054226;28;20184;-70
2021/03/07 03:38:40;;;;;;;3.50;2.07;;;;;;;1.88;60.15;101572.38;5052717;28;20275;-70
2021/03/07 03:41:08;;;;;;;10.00;2.53;;;;;;;1.92;60.26;101560.94;5052853;28;20174;-70
2021/03/07 03:43:34;;;;;;;5.10;2.20;;;;;;;1.84;60.53;101544.28;5052864;28;20192;-70
2021/03/07 03:46:01;;;;;;;3.90;2.00;;;;;;;1.92;60.02;101560.06;5052964;28;20182;-69
2021/03/07 03:48:29;;;;;;;8.27;2.20;;;;;;;1.88;60.45;101552.19;5053398;28;20182;-70
2021/03/07 03:50:57;;;;;;;6.67;2.67;;;;;;;1.92;59.91;101529.34;5054952;28;20204;-70
2021/03/07 03:53:23;;;;;;;3.50;1.83;;;;;;;1.93;60.13;101552.16;5057957;28;20208;-71
2021/03/07 03:55:50;;;;;;;6.43;2.10;;;;;;;1.80;60.38;101542.56;5058296;28;20684;-70
2021/03/07 03:58:19;;;;;;;3.33;2.00;;;;;;;1.82;60.52;101540.78;5057692;28;20599;-70
2021/03/07 04:00:44;;;;;;;10.03;2.40;;;;;;;1.76;60.81;101546.09;5041541;28;20176;-70
2021/03/07 04:03:14;;;;;;;6.17;2.13;;;;;;;1.78;60.09;101554.84;5059112;28;20223;-71
2021/03/07 04:05:43;;;;;;;5.73;2.50;;;;;;;1.82;60.35;101525.00;5057515;28;20666;-70
2021/03/07 04:08:09;;;;;;;7.30;2.57;;;;;;;1.87;60.18;101533.75;5057964;28;20176;-70
2021/03/07 04:10:36;;;;;;;5.67;2.07;;;;;;;1.85;60.65;101535.50;5056418;28;20170;-70
2021/03/07 04:13:01;;;;;;;6.53;2.33;;;;;;;1.91;60.26;101530.22;5056515;28;20203;-70
2021/03/07 04:15:27;;;;;;;5.17;2.60;;;;;;;1.94;60.04;101524.94;5057568;28;20177;-70
2021/03/07 04:17:54;;;;;;;5.83;2.43;;;;;;;1.91;60.24;101518.81;5057653;28;20198;-70
2021/03/07 04:20:20;;;;;;;5.17;2.77;;;;;;;1.91;60.61;101526.72;5039870;28;20181;-71
2021/03/07 04:22:48;;;;;;;8.87;2.50;;;;;;;1.86;60.45;101542.53;5056451;28;20285;-70
2021/03/07 04:25:14;;;;;;;6.97;2.57;;;;;;;1.90;60.18;101517.94;5056919;28;20254;-70
2021/03/07 04:27:39;;;;;;;6.00;2.30;;;;;;;1.95;59.94;101518.78;5056156;28;20575;-70
2021/03/07 04:30:06;;;;;;;7.03;2.30;;;;;;;1.95;59.88;101513.53;5057266;28;20182;-71
2021/03/07 04:32:32;;;;;;;7.93;2.93;;;;;;;1.94;60.29;101524.94;5057340;28;20243;-71
2021/03/07 04:34:58;;;;;;;3.03;2.10;;;;;;;1.98;60.04;101523.16;5057116;28;20183;-70
2021/03/07 04:37:23;;;;;;;7.67;2.10;;;;;;;1.86;60.45;101517.09;5055979;28;20259;-71
2021/03/07 04:39:48;;;;;;;6.87;2.30;;;;;;;1.92;60.39;101505.66;5056717;28;20544;-70
2021/03/07 04:42:14;;;;;;;4.00;1.93;;;;;;;1.95;59.78;101513.53;5056081;28;20198;-71
2021/03/07 04:44:39;;;;;;;5.80;2.37;;;;;;;1.93;60.61;101522.31;5056015;28;20227;-70
2021/03/07 04:47:04;;;;;;;7.13;2.33;;;;;;;1.88;60.89;101499.53;5057088;28;20183;-70
2021/03/07 04:49:30;;;;;;;4.53;2.20;;;;;;;1.86;60.96;101500.44;5055855;28;20181;-70
2021/03/07 04:51:55;;;;;;;7.87;2.30;;;;;;;1.91;61.15;101498.63;5055664;28;20551;-69
2021/03/07 04:54:20;;;;;;;3.77;2.00;;;;;;;1.91;61.02;101508.28;5057407;28;20633;-71
2021/03/07 04:56:45;;;;;;;8.37;2.63;;;;;;;1.89;61.39;101500.41;5056750;28;20197;-70
2021/03/07 04:59:11;;;;;;;11.23;2.20;;;;;;;1.88;61.62;101499.53;5056853;28;20177;-70
2021/03/07 05:01:36;;;;;;;8.67;2.10;;;;;;;1.85;61.49;101498.66;5054974;28;20177;-70
2021/03/07 05:04:05;;;;;;;5.27;2.37;;;;;;;1.85;61.58;101517.94;5056766;28;20182;-70
2021/03/07 05:06:35;;;;;;;5.93;2.17;;;;;;;1.85;61.20;101502.16;5055720;28;20176;-69
2021/03/07 05:09:00;;;;;;;5.07;2.10;;;;;;;1.79;61.74;101488.16;5056935;28;20172;-71
2021/03/07 05:11:25;;;;;;;6.00;2.10;;;;;;;1.91;61.20;101497.75;5057050;28;20529;-70
2021/03/07 05:13:51;;;;;;;4.57;2.03;;;;;;;1.91;61.35;101488.09;5058124;28;20525;-71
2021/03/07 05:16:17;;;;;;;3.60;2.30;;;;;;;1.89;61.42;101476.72;5057734;28;20658;-70
2021/03/07 05:18:45;;;;;;;7.30;2.37;;;;;;;1.90;61.27;101483.72;5057242;28;20203;-71
2021/03/07 05:21:10;;;;;;;7.00;2.63;;;;;;;1.86;61.35;101474.09;5057274;28;20189;-70
2021/03/07 05:23:36;;;;;;;7.37;2.60;;;;;;;1.87;61.43;101476.72;5056662;28;20556;-70
2021/03/07 05:26:01;;;;;;;7.63;2.60;;;;;;;1.86;61.47;101471.47;5056779;28;20177;-71
2021/03/07 05:28:27;;;;;;;8.73;2.30;;;;;;;1.94;60.65;101476.69;5055585;28;20176;-71
2021/03/07 05:30:52;;;;;;;7.47;2.60;;;;;;;1.84;61.18;101457.41;5056736;28;20178;-71
2021/03/07 05:33:17;;;;;;;5.17;2.70;;;;;;;1.81;60.67;101458.31;5055968;28;20586;-71
2021/03/07 05:35:43;;;;;;;8.03;2.70;;;;;;;1.75;60.63;101466.25;5055508;28;20222;-70
2021/03/07 05:38:09;;;;;;;7.03;2.80;;;;;;;1.77;60.53;101468.88;5055906;28;20205;-71
2021/03/07 05:40:35;;;;;;;13.03;2.70;;;;;;;1.83;59.82;101456.53;5037745;28;20655;-71
2021/03/07 05:43:00;;;;;;;7.93;2.23;;;;;;;1.84;60.21;101463.56;5054272;28;20247;-71
2021/03/07 05:45:26;;;;;;;5.57;2.50;;;;;;;1.83;59.96;101468.84;5055832;28;20189;-71
2021/03/07 05:47:52;;;;;;;7.37;2.70;;;;;;;1.88;59.09;101448.63;5054412;28;20175;-70
2021/03/07 05:50:18;;;;;;;8.83;2.57;;;;;;;1.79;59.17;101461.84;5054670;28;20183;-71
2021/03/07 05:52:43;;;;;;;10.30;2.53;;;;;;;1.84;59.09;101457.41;5079486;22;20223;-68
2021/03/07 05:55:10;;;;;;;10.40;2.30;;;;;;;1.79;58.83;101454.81;5073542;28;20539;-68
2021/03/07 05:57:36;;;;;;;5.83;2.50;;;;;;;1.80;58.54;101479.38;5073170;28;20215;-67
2021/03/07 06:00:03;;;;;;;11.67;2.50;;;;;;;1.76;59.11;101461.88;5073553;28;20191;-67
2021/03/07 06:02:29;;;;;;;15.37;2.50;;;;;;;1.69;59.16;101454.91;5074452;28;20218;-67
2021/03/07 06:04:54;;;;;;;4.93;2.50;;;;;;;1.80;58.48;101459.19;5074688;28;20181;-68
2021/03/07 06:07:20;;;;;;;5.97;2.77;;;;;;;1.73;59.02;101468.03;5056424;28;20180;-68
2021/03/07 06:09:46;;;;;;;6.43;2.70;;;;;;;1.69;59.56;101454.91;5074058;28;20176;-68
2021/03/07 06:12:19;;;;;;;5.60;2.30;;;;;;;1.84;58.43;101458.28;5072815;28;20198;-68
2021/03/07 06:14:46;;;;;;;7.20;3.07;;;;;;;1.84;59.17;101455.66;5055278;28;20232;-67
2021/03/07 06:17:13;;;;;;;4.47;2.90;;;;;;;1.86;59.16;101460.94;5072791;28;20245;-67
2021/03/07 06:20:03;;;;;;;6.53;2.30;;;;;;;1.72;59.58;101492.59;5056052;28;20181;-68
2021/03/07 06:22:29;;;;;;;5.50;2.63;;;;;;;1.72;59.54;101463.66;5056074;28;20252;-68
2021/03/07 06:24:55;;;;;;;6.30;2.50;;;;;;;1.79;59.92;101461.84;5073788;28;20729;-67
2021/03/07 06:27:20;;;;;;;9.37;2.60;;;;;;;1.80;59.76;101451.31;5073991;28;20261;-68
2021/03/07 06:30:03;;;;;;;4.77;2.57;;;;;;;1.94;59.07;101452.97;5073590;28;20173;-68
2021/03/07 06:32:31;;;;;;;4.80;2.73;;;;;;;1.90;59.55;101457.41;5073968;28;20205;-68
2021/03/07 06:34:57;;;;;;;9.63;3.80;;;;;;;1.91;59.26;101442.47;5074050;28;20178;-69
2021/03/07 06:37:23;;;;;;;7.83;2.73;;;;;;;1.93;59.76;101444.22;5074104;28;20695;-67
2021/03/07 06:39:48;;;;;;;6.17;2.30;;;;;;;1.98;59.51;101462.59;5072706;28;20167;-68
2021/03/07 06:42:14;;;;;;;5.37;2.93;;;;;;;2.01;59.40;101444.13;5073773;28;20200;-67
2021/03/07 06:44:58;;;;;;;6.87;3.20;;;;;;;2.00;59.61;101445.91;5072549;28;20256;-68
2021/03/07 06:47:25;;;;;;;6.00;2.67;;;;;;;1.95;60.04;101445.06;5074270;28;20184;-68
2021/03/07 06:50:12;;;;;;;3.93;2.60;;;;;;;2.07;59.87;101446.72;5072666;28;20179;-68
2021/03/07 06:53:07;;;;;;;6.17;2.63;;;;;;;2.04;60.29;101444.13;5055457;28;20261;-68
2021/03/07 06:55:43;;;;;;;4.00;2.50;;;;;;;2.05;59.77;101425.66;5068836;28;20198;-69
2021/03/07 06:58:15;;;;;;;9.50;3.70;;;;;;;2.03;60.49;101440.59;5072490;28;20202;-67
2021/03/07 07:00:40;;;;;;;10.90;3.90;;;;;;;1.96;61.01;101446.81;5072467;28;20582;-68
2021/03/07 07:03:07;;;;;;;7.77;3.60;;;;;;;2.07;60.62;101447.59;5072575;28;20226;-68
2021/03/07 07:05:34;;;;;;;8.03;3.03;;;;;;;2.05;60.75;101440.59;5072476;28;20263;-68
2021/03/07 07:07:59;;;;;;;6.37;3.33;;;;;;;2.00;60.90;101450.28;5077985;28;20173;-67
2021/03/07 07:10:24;;;;;;;6.47;2.70;;;;;;;2.01;61.23;101447.66;5084247;28;20176;-68
2021/03/07 07:12:49;;;;;;;9.80;2.97;;;;;;;1.82;61.85;101462.69;5083783;28;20671;-68
2021/03/07 07:15:17;;;;;;;8.13;2.93;;;;;;;2.01;61.05;101449.41;5073206;28;20169;-69
2021/03/07 07:17:42;;;;;;;5.33;2.80;;;;;;;1.99;61.43;101444.16;5073511;28;20283;-69
2021/03/07 07:20:09;;;;;;;8.00;3.27;;;;;;;1.85;61.80;101443.38;5074337;28;20175;-68
2021/03/07 07:22:35;;;;;;;8.27;2.90;;;;;;;2.00;61.50;101466.97;5071840;28;20755;-69
2021/03/07 07:25:01;;;;;;;7.27;2.90;;;;;;;2.04;61.61;101463.41;5055086;28;20168;-68
2021/03/07 07:27:27;;;;;;;9.93;3.50;;;;;;;2.08;61.64;101449.34;5072941;28;20508;-69
2021/03/07 07:29:52;;;;;;;9.83;3.10;;;;;;;2.09;61.61;101451.09;5073284;28;20179;-69
2021/03/07 07:32:23;;;;;;;7.03;3.03;;;;;;;2.08;61.34;101441.44;5072947;28;20168;-67
2021/03/07 07:34:51;;;;;;;6.97;3.13;;;;;;;2.11;61.63;101451.94;5055147;28;20181;-68
2021/03/07 07:37:29;;;;;;;5.17;2.90;;;;;;;2.07;61.68;101444.97;5073109;28;20190;-70
2021/03/07 07:39:55;;;;;;;5.73;2.97;;;;;;;2.15;61.33;101456.28;5071961;28;20198;-69
2021/03/07 07:42:28;;;;;;;6.10;2.70;;;;;;;2.21;61.28;101439.56;5072044;28;20204;-68
2021/03/07 07:44:58;;;;;;;8.53;3.00;;;;;;;2.30;61.00;101457.94;5072548;28;20161;-68
2021/03/07 07:47:23;;;;;;;5.00;3.20;;;;;;;2.32;61.46;101447.38;5072903;28;20171;-68
2021/03/07 07:49:50;;;;;;;6.47;3.03;;;;;;;2.37;61.43;101462.25;5071632;28;20187;-68
2021/03/07 07:52:25;;;;;;;6.53;3.23;;;;;;;2.32;61.75;101436.84;5071533;28;20197;-68
2021/03/07 07:54:57;;;;;;;6.03;2.83;;;;;;;2.35;61.73;101450.88;5073222;28;20156;-68
2021/03/07 07:57:32;;;;;;;4.07;2.90;;;;;;;2.34;61.25;101412.25;5075304;28;20192;-68
2021/03/07 07:59:58;;;;;;;9.10;3.53;;;;;;;2.12;62.19;101451.06;5075727;28;20173;-68
2021/03/07 08:02:41;;;;;;;7.67;3.30;;;;;;;2.17;62.21;101438.72;5073021;28;20226;-69
2021/03/07 08:05:28;;;;;;;8.47;3.50;;;;;;;2.33;61.90;101433.31;5071279;28;20516;-68
2021/03/07 08:08:00;;;;;;;5.43;3.20;;;;;;;2.44;61.39;101415.66;5064576;28;20182;-69
2021/03/07 08:10:37;;;;;;;6.87;3.50;;;;;;;2.48;61.30;101430.53;5072725;28;20158;-68
2021/03/07 08:13:27;;;;;;;5.10;3.00;;;;;;;2.58;61.01;101421.63;5071150;28;20735;-69
2021/03/07 08:15:56;;;;;;;10.43;3.23;;;;;;;2.55;60.80;101412.88;5072352;28;20206;-69
2021/03/07 08:18:23;;;;;;;9.40;3.27;;;;;;;2.66;60.45;101435.63;5071330;28;20241;-68
2021/03/07 08:20:51;;;;;;;8.40;3.10;;;;;;;2.51;61.10;101427.88;5072798;28;20178;-68
2021/03/07 08:23:18;;;;;;;11.80;3.73;;;;;;;2.67;60.99;101428.59;5073154;28;20192;-69
2021/03/07 08:25:46;;;;;;;8.27;3.43;;;;;;;2.61;60.78;101440.06;5072861;28;20699;-70
2021/03/07 08:28:27;;;;;;;10.53;3.83;;;;;;;2.75;60.45;101410.91;5073372;28;20174;-71
2021/03/07 08:30:56;;;;;;;8.33;3.10;;;;;;;2.70;60.40;101426.78;5073572;28;20555;-69
2021/03/07 08:33:25;;;;;;;4.37;2.50;;;;;;;2.66;60.69;101418.94;5071655;28;20262;-70
2021/03/07 08:36:10;;;;;;;6.80;2.77;;;;;;;2.72;60.53;101403.91;5073063;28;20183;-69
2021/03/07 08:38:36;;;;;;;6.67;3.03;;;;;;;2.76;60.86;101403.00;5076106;28;20272;-68
2021/03/07 08:41:02;;;;;;;7.23;3.10;;;;;;;2.75;60.45;101417.06;5075474;28;20178;-69
2021/03/07 08:43:29;;;;;;;10.17;2.63;;;;;;;2.77;59.86;101425.81;5076329;28;20554;-69
2021/03/07 08:46:01;;;;;;;9.27;2.60;;;;;;;2.60;60.61;101419.88;5076155;28;20163;-68
2021/03/07 08:48:28;;;;;;;11.13;3.00;;;;;;;2.71;60.65;101403.94;5075968;28;20283;-69
2021/03/07 08:50:54;;;;;;;4.83;2.37;;;;;;;2.60;61.22;101396.16;5058147;28;20185;-69
2021/03/07 08:53:22;;;;;;;11.43;3.23;;;;;;;2.78;60.47;101395.06;5076003;28;20677;-68
2021/03/07 08:55:47;;;;;;;9.13;2.30;;;;;;;2.84;60.64;101387.06;5075990;28;20181;-68
2021/03/07 08:58:12;;;;;;;5.43;2.47;;;;;;;2.92;60.25;101379.06;5075822;28;20581;-69
2021/03/07 09:00:43;;;;;;;6.30;2.90;;;;;;;3.06;60.35;101374.50;5075499;28;20531;-69
2021/03/07 09:03:12;;;;;;;4.73;2.37;;;;;;;3.11;59.64;101372.66;5075943;28;20192;-68
2021/03/07 09:05:37;;;;;;;7.93;2.10;;;;;;;3.12;59.80;101398.16;5076291;28;20205;-69
2021/03/07 09:08:03;;;;;;;12.73;2.97;;;;;;;3.14;59.67;101372.63;5074909;28;20564;-68
2021/03/07 09:10:37;;;;;;;5.77;2.70;;;;;;;3.26;59.76;101361.88;5075861;28;20682;-68
2021/03/07 09:13:14;;;;;;;7.13;2.73;;;;;;;3.36;59.21;101345.06;5075521;28;20239;-69
2021/03/07 09:15:49;;;;;;;7.53;2.80;;;;;;;3.35;59.44;101360.91;5074891;28;20172;-69
2021/03/07 09:18:14;;;;;;;7.33;2.67;;;;;;;3.51;58.69;101350.97;5074693;28;20184;-69
2021/03/07 09:20:48;;;;;;;5.47;2.30;;;;;;;3.47;58.75;101344.88;5074721;28;20630;-68
2021/03/07 09:23:26;;;;;;;7.87;2.57;;;;;;;3.51;59.34;101343.06;5057909;28;20758;-69
2021/03/07 09:25:51;;;;;;;8.93;2.50;;;;;;;3.66;58.35;101342.78;5075675;28;20649;-70
2021/03/07 09:28:34;;;;;;;6.23;2.93;;;;;;;3.64;58.49;101339.31;5075892;28;20170;-69
2021/03/07 09:31:00;;;;;;;10.30;2.77;;;;;;;3.37;59.61;101352.06;5075953;28;20174;-70
2021/03/07 09:33:29;;;;;;;7.83;2.40;;;;;;;3.49;59.40;101348.34;5075314;28;20205;-68
2021/03/07 09:36:09;;;;;;;6.60;2.33;;;;;;;3.64;59.02;101336.69;5074213;28;20268;-69
2021/03/07 09:38:42;;;;;;;8.83;3.10;;;;;;;3.65;59.00;101336.66;5075406;28;20284;-69
2021/03/07 09:41:08;;;;;;;6.77;2.13;;;;;;;3.67;58.96;101344.53;5074819;28;20274;-69
2021/03/07 09:43:34;;;;;;;7.57;2.50;;;;;;;3.52;59.77;101352.72;5075872;28;20189;-69
2021/03/07 09:45:59;;;;;;;7.30;2.33;;;;;;;3.47;59.97;101349.28;5075565;28;20217;-69
2021/03/07 09:48:30;;;;;;;5.53;2.40;;;;;;;3.33;59.97;101358.25;5074050;28;20220;-68
2021/03/07 09:50:56;;;;;;;10.23;2.50;;;;;;;3.37;59.85;101348.56;5074393;28;20174;-70
2021/03/07 09:53:22;;;;;;;6.97;2.43;;;;;;;3.38;60.54;101330.06;5074298;28;20556;-70
2021/03/07 09:55:47;;;;;;;6.13;2.10;;;;;;;3.47;60.34;101344.88;5076145;28;20535;-69
2021/03/07 09:58:14;;;;;;;6.33;2.37;;;;;;;3.55;60.05;101347.38;5075370;28;20189;-68
2021/03/07 10:00:41;;;;;;;5.67;2.30;;;;;;;3.55;60.14;101347.38;5073888;28;20178;-69
2021/03/07 10:03:20;;;;;;;3.83;2.33;;;;;;;3.50;59.72;101347.47;5074753;28;20201;-69
2021/03/07 10:06:05;;;;;;;5.67;2.60;;;;;;;3.49;59.90;101327.25;5076300;28;20646;-70
2021/03/07 10:08:33;;;;;;;10.50;2.60;;;;;;;3.47;60.10;101354.56;5064721;28;20197;-69
2021/03/07 10:11:21;;;;;;;8.43;2.70;;;;;;;3.48;60.29;101357.19;5081255;28;20226;-69
2021/03/07 10:14:04;;;;;;;12.80;2.80;;;;;;;3.45;60.43;101338.75;5076026;28;20186;-69
2021/03/07 10:16:32;;;;;;;14.27;2.60;;;;;;;3.55;60.56;101347.38;5057202;28;20172;-70
2021/03/07 10:19:09;;;;;;;9.27;2.50;;;;;;;3.67;59.97;101349.81;5073679;28;20184;-69
2021/03/07 10:21:35;;;;;;;6.93;2.87;;;;;;;3.60;60.11;101335.84;5074837;28;20245;-71
2021/03/07 10:24:07;;;;;;;7.87;2.77;;;;;;;3.62;60.08;101346.38;5073304;28;20671;-69
2021/03/07 10:26:32;;;;;;;6.33;2.80;;;;;;;3.62;60.25;101344.63;5073393;28;20264;-70
2021/03/07 10:28:58;;;;;;;7.80;2.53;;;;;;;3.66;60.08;101335.75;5074954;28;20607;-71
2021/03/07 10:31:23;;;;;;;9.80;2.57;;;;;;;3.73;60.08;101331.25;5075451;28;20189;-71
2021/03/07 10:33:52;;;;;;;6.70;2.50;;;;;;;3.69;60.64;101333.06;5074796;28;20201;-71
2021/03/07 10:36:19;;;;;;;12.20;2.60;;;;;;;3.86;59.96;101340.72;5075246;28;20174;-71
2021/03/07 10:38:50;;;;;;;5.00;2.40;;;;;;;3.93;59.98;101329.13;5075050;28;20217;-69
2021/03/07 10:41:32;;;;;;;5.40;2.20;;;;;;;3.94;59.54;101322.09;5074446;28;20249;-68
2021/03/07 10:43:58;;;;;;;6.73;2.60;;;;;;;4.01;59.46;101316.66;5074024;28;20197;-69
2021/03/07 10:46:24;;;;;;;6.77;2.27;;;;;;;4.10;59.49;101318.28;5074494;28;20178;-70
2021/03/07 10:48:52;;;;;;;7.13;2.33;;;;;;;4.27;58.96;101317.94;5074135;28;20177;-69
2021/03/07 10:51:17;;;;;;;5.57;2.10;;;;;;;4.32;58.88;101289.66;5056048;28;20192;-69
2021/03/07 10:53:43;;;;;;;9.40;2.67;;;;;;;4.34;58.27;101298.41;5072640;28;20234;-69
2021/03/07 10:56:09;;;;;;;6.27;2.00;;;;;;;4.36;57.89;101304.53;5074301;28;20182;-69
2021/03/07 10:58:34;;;;;;;8.83;2.00;;;;;;;4.46;58.05;101284.97;5074251;28;20714;-70
2021/03/07 11:00:59;;;;;;;9.13;2.67;;;;;;;4.52;57.38;101306.00;5072805;28;20179;-71
2021/03/07 11:03:24;;;;;;;6.40;1.90;;;;;;;4.53;57.48;101293.66;5073689;28;20201;-70
2021/03/07 11:05:50;;;;;;;8.53;2.10;;;;;;;4.68;57.04;101293.31;5073866;28;20551;-70
2021/03/07 11:08:15;;;;;;;4.63;2.03;;;;;;;4.86;56.39;101287.66;5074488;28;20627;-70
2021/03/07 11:10:40;;;;;;;6.93;2.00;;;;;;;4.92;56.01;101286.63;5072995;28;20175;-70
2021/03/07 11:13:05;;;;;;;6.67;1.87;;;;;;;5.03;56.00;101295.19;5074277;28;20202;-70
2021/03/07 11:15:31;;;;;;;10.43;2.20;;;;;;;5.31;55.84;101275.13;5072501;28;20178;-71
2021/03/07 11:17:56;;;;;;;7.43;2.57;;;;;;;5.62;54.94;101272.59;5072189;28;20705;-70
2021/03/07 11:20:21;;;;;;;5.83;2.03;;;;;;;5.57;54.24;101279.75;5055642;28;20183;-69
2021/03/07 11:22:47;;;;;;;8.30;2.33;;;;;;;5.78;53.69;101270.41;5055609;28;20210;-70
2021/03/07 11:25:12;;;;;;;5.63;1.90;;;;;;;6.26;52.03;101278.81;5073076;28;20179;-69
2021/03/07 11:27:38;;;;;;;4.20;1.90;;;;;;;6.11;52.47;101251.88;5072317;28;20288;-71
2021/03/07 11:30:04;;;;;;;4.67;1.77;;;;;;;6.11;53.03;101268.66;5072835;28;20175;-68
2021/03/07 11:32:29;;;;;;;5.80;1.97;;;;;;;6.03;53.00;101285.69;5073405;28;20205;-69
2021/03/07 11:34:54;;;;;;;8.53;1.70;;;;;;;5.63;53.31;101244.31;5072397;28;20262;-69